createdAt,value
2018-09-02T00:02:07.128Z,7.27
2018-09-02T00:04:41.831Z,7.90
2018-09-02T00:07:16.517Z,7.50
2018-09-02T00:09:51.109Z,7.27
2018-09-02T00:12:26.293Z,7.70
2018-09-02T00:15:00.801Z,6.50
2018-09-02T00:17:35.591Z,6.67
2018-09-02T00:20:10.307Z,7.63
2018-09-02T00:22:45.037Z,6.90
2018-09-02T00:25:20.042Z,6.73
2018-09-02T00:27:54.591Z,7.50
2018-09-02T00:30:29.122Z,7.20
2018-09-02T00:33:03.811Z,7.37
2018-09-02T00:35:38.526Z,6.53
2018-09-02T00:38:13.087Z,8.23
2018-09-02T00:40:47.587Z,8.47
2018-09-02T00:43:22.519Z,7.83
2018-09-02T00:45:57.155Z,9.30
2018-09-02T00:48:31.938Z,8.40
2018-09-02T00:51:06.465Z,7.10
2018-09-02T00:53:41.487Z,7.40
2018-09-02T00:56:16.122Z,7.73
2018-09-02T00:58:50.899Z,7.43
2018-09-02T01:01:25.453Z,7.27
2018-09-02T01:03:59.969Z,7.90
2018-09-02T01:06:34.720Z,6.97
2018-09-02T01:09:09.693Z,15.67
2018-09-02T01:11:44.577Z,6.90
2018-09-02T01:14:19.129Z,8.37
2018-09-02T01:16:53.868Z,7.10
2018-09-02T01:19:28.476Z,6.00
2018-09-02T01:22:03.238Z,6.80
2018-09-02T01:24:37.994Z,6.40
2018-09-02T01:27:12.683Z,6.43
2018-09-02T01:29:47.416Z,6.93
2018-09-02T01:32:21.862Z,5.43
2018-09-02T01:34:56.423Z,8.47
2018-09-02T01:37:31.384Z,8.37
2018-09-02T01:40:05.999Z,5.97
2018-09-02T01:42:40.938Z,5.47
2018-09-02T01:45:15.708Z,5.73
2018-09-02T01:47:50.293Z,5.93
2018-09-02T01:50:24.934Z,6.50
2018-09-02T01:52:59.467Z,5.43
2018-09-02T01:55:33.949Z,5.67
2018-09-02T01:58:08.473Z,5.93
2018-09-02T02:00:42.963Z,5.23
2018-09-02T02:03:17.728Z,5.90
2018-09-02T02:05:52.262Z,7.30
2018-09-02T02:08:26.919Z,6.00
2018-09-02T02:11:01.571Z,5.50
2018-09-02T02:13:36.270Z,6.10
2018-09-02T02:16:10.858Z,5.67
2018-09-02T02:18:45.410Z,5.70
2018-09-02T02:21:19.999Z,5.53
2018-09-02T02:23:55.028Z,5.80
2018-09-02T02:26:29.588Z,6.40
2018-09-02T02:29:04.155Z,4.57
2018-09-02T02:31:38.688Z,4.97
2018-09-02T02:34:13.408Z,4.80
2018-09-02T02:36:48.122Z,4.60
2018-09-02T02:39:22.819Z,5.37
2018-09-02T02:41:57.344Z,4.80
2018-09-02T02:44:32.209Z,4.30
2018-09-02T02:47:07.286Z,5.00
2018-09-02T02:49:41.755Z,5.30
2018-09-02T02:52:16.405Z,5.53
2018-09-02T02:54:50.876Z,5.67
2018-09-02T02:57:25.795Z,4.63
2018-09-02T03:00:00.351Z,4.77
2018-09-02T03:02:34.889Z,5.20
2018-09-02T03:05:09.358Z,5.30
2018-09-02T03:07:44.021Z,4.37
2018-09-02T03:10:18.878Z,4.20
2018-09-02T03:12:53.478Z,4.43
2018-09-02T03:15:27.991Z,4.90
2018-09-02T03:18:02.585Z,4.77
2018-09-02T03:20:37.225Z,5.10
2018-09-02T03:23:11.846Z,5.07
2018-09-02T03:25:46.411Z,5.77
2018-09-02T03:28:21.150Z,5.40
2018-09-02T03:30:56.558Z,6.03
2018-09-02T03:33:31.171Z,5.90
2018-09-02T03:36:06.280Z,5.83
2018-09-02T03:38:40.931Z,6.63
2018-09-02T03:41:15.842Z,6.50
2018-09-02T03:43:50.624Z,6.50
2018-09-02T03:46:25.202Z,6.63
2018-09-02T03:48:59.763Z,6.03
2018-09-02T03:51:34.350Z,7.00
2018-09-02T03:54:09.160Z,7.87
2018-09-02T03:56:43.635Z,7.60
2018-09-02T03:59:18.392Z,10.33
2018-09-02T04:01:47.414Z,8.03
2018-09-02T04:04:16.400Z,6.50
2018-09-02T04:06:45.425Z,7.20
2018-09-02T04:09:14.437Z,6.13
2018-09-02T04:11:43.456Z,6.80
2018-09-02T04:14:12.418Z,7.30
2018-09-02T04:16:41.770Z,7.20
2018-09-02T04:19:10.799Z,7.00
2018-09-02T04:21:39.846Z,7.27
2018-09-02T04:24:08.874Z,6.60
2018-09-02T04:26:37.983Z,7.83
2018-09-02T04:29:06.996Z,7.30
2018-09-02T04:31:36.243Z,6.30
2018-09-02T04:34:05.295Z,7.70
2018-09-02T04:36:34.306Z,7.30
2018-09-02T04:39:04.874Z,8.73
2018-09-02T04:41:33.897Z,7.70
2018-09-02T04:44:03.266Z,7.43
2018-09-02T04:46:32.278Z,7.53
2018-09-02T04:49:01.446Z,8.07
2018-09-02T04:51:30.491Z,8.27
2018-09-02T04:53:59.523Z,7.17
2018-09-02T04:56:28.594Z,7.17
2018-09-02T04:58:57.640Z,5.80
2018-09-02T05:01:27.026Z,7.60
2018-09-02T05:03:56.027Z,7.00
2018-09-02T05:06:25.040Z,6.00
2018-09-02T05:08:54.627Z,7.37
2018-09-02T05:11:23.630Z,6.33
2018-09-02T05:13:52.637Z,6.57
2018-09-02T05:16:21.686Z,7.23
2018-09-02T05:18:50.686Z,6.60
2018-09-02T05:21:19.720Z,7.40
2018-09-02T05:23:48.771Z,7.63
2018-09-02T05:26:17.806Z,8.33
2018-09-02T05:28:47.036Z,7.00
2018-09-02T05:31:16.045Z,8.20
2018-09-02T05:33:45.082Z,7.70
2018-09-02T05:36:14.362Z,7.50
2018-09-02T05:38:43.408Z,8.60
2018-09-02T05:41:12.420Z,8.57
2018-09-02T05:43:41.450Z,8.77
2018-09-02T05:46:10.468Z,8.77
2018-09-02T05:48:39.495Z,8.90
2018-09-02T05:51:08.514Z,9.40
2018-09-02T05:53:37.522Z,11.60
2018-09-02T05:56:06.804Z,9.60
2018-09-02T05:58:35.811Z,8.70
2018-09-02T06:01:04.855Z,9.77
2018-09-02T06:03:34.195Z,8.93
2018-09-02T06:06:03.566Z,9.33
2018-09-02T06:08:32.635Z,8.67
2018-09-02T06:11:02.023Z,9.20
2018-09-02T06:13:31.015Z,9.43
2018-09-02T06:16:00.028Z,9.50
2018-09-02T06:18:29.059Z,8.17
2018-09-02T06:20:58.088Z,9.77
2018-09-02T06:23:27.162Z,9.00
2018-09-02T06:25:56.250Z,10.43
2018-09-02T06:28:25.253Z,10.93
2018-09-02T06:30:54.334Z,9.73
2018-09-02T06:33:23.323Z,8.50
2018-09-02T06:35:52.327Z,10.33
2018-09-02T06:38:21.511Z,13.20
2018-09-02T06:40:50.535Z,7.07
2018-09-02T06:43:19.544Z,8.27
2018-09-02T06:45:48.696Z,8.83
2018-09-02T06:48:19.543Z,6.83
2018-09-02T06:50:49.338Z,8.30
2018-09-02T06:53:18.342Z,9.77
2018-09-02T06:55:47.359Z,9.40
2018-09-02T06:58:16.387Z,8.63
2018-09-02T07:00:45.416Z,7.33
2018-09-02T07:03:14.484Z,8.80
2018-09-02T07:05:43.559Z,9.90
2018-09-02T07:08:13.424Z,8.13
2018-09-02T07:10:43.178Z,7.30
2018-09-02T07:13:12.172Z,7.97
2018-09-02T07:15:41.187Z,8.17
2018-09-02T07:18:10.226Z,8.97
2018-09-02T07:20:39.208Z,7.40
2018-09-02T07:23:08.275Z,7.33
2018-09-02T07:25:37.263Z,6.90
2018-09-02T07:28:06.431Z,7.10
2018-09-02T07:30:35.413Z,6.40
2018-09-02T07:33:04.415Z,9.20
2018-09-02T07:35:33.742Z,7.77
2018-09-02T07:38:02.798Z,6.80
2018-09-02T07:40:32.148Z,6.30
2018-09-02T07:43:01.179Z,6.20
2018-09-02T07:45:30.308Z,5.00
2018-09-02T07:47:59.395Z,6.00
2018-09-02T07:50:28.458Z,5.13
2018-09-02T07:52:57.507Z,7.80
2018-09-02T07:55:26.875Z,6.40
2018-09-02T07:57:56.013Z,8.10
2018-09-02T08:00:25.010Z,6.20
2018-09-02T08:02:54.062Z,5.67
2018-09-02T08:05:23.234Z,6.77
2018-09-02T08:07:52.223Z,6.07
2018-09-02T08:10:21.656Z,4.47
2018-09-02T08:12:50.944Z,6.77
2018-09-02T08:15:19.786Z,4.10
2018-09-02T08:17:48.958Z,4.00
2018-09-02T08:20:18.071Z,5.60
2018-09-02T08:22:47.103Z,5.10
2018-09-02T08:25:17.055Z,3.80
2018-09-02T08:27:47.192Z,3.80
2018-09-02T08:30:16.214Z,3.90
2018-09-02T08:32:45.313Z,4.13
2018-09-02T08:35:14.390Z,4.10
2018-09-02T08:37:43.463Z,4.20
2018-09-02T08:40:12.798Z,4.53
2018-09-02T08:42:41.883Z,4.00
2018-09-02T08:45:10.923Z,4.50
2018-09-02T08:47:40.046Z,4.00
2018-09-02T08:50:09.104Z,4.50
2018-09-02T08:52:38.099Z,4.70
2018-09-02T08:55:07.199Z,5.13
2018-09-02T08:57:36.251Z,4.10
2018-09-02T09:00:06.218Z,4.20
2018-09-02T09:02:35.231Z,4.37
2018-09-02T09:05:04.360Z,4.50
2018-09-02T09:07:34.289Z,4.83
2018-09-02T09:10:03.419Z,4.23
2018-09-02T09:12:32.438Z,4.07
2018-09-02T09:15:01.483Z,4.50
2018-09-02T09:17:30.491Z,3.63
2018-09-02T09:19:59.974Z,4.47
2018-09-02T09:22:29.002Z,4.57
2018-09-02T09:24:58.047Z,4.37
2018-09-02T09:27:27.085Z,3.80
2018-09-02T09:29:56.095Z,4.03
2018-09-02T09:32:25.300Z,4.20
2018-09-02T09:34:54.291Z,3.93
2018-09-02T09:37:23.315Z,4.47
2018-09-02T09:39:52.677Z,3.67
2018-09-02T09:42:21.719Z,4.37
2018-09-02T09:44:50.739Z,4.00
2018-09-02T09:47:19.870Z,4.13
2018-09-02T09:49:48.952Z,4.43
2018-09-02T09:52:18.070Z,4.67
2018-09-02T09:54:47.080Z,3.70
2018-09-02T09:57:16.186Z,3.57
2018-09-02T09:59:45.215Z,3.90
2018-09-02T10:02:14.239Z,4.10
2018-09-02T10:04:43.436Z,5.10
2018-09-02T10:07:12.482Z,5.00
2018-09-02T10:09:41.462Z,3.97
2018-09-02T10:12:10.551Z,4.03
2018-09-02T10:14:39.609Z,3.63
2018-09-02T10:17:08.806Z,4.53
2018-09-02T10:19:37.783Z,3.87
2018-09-02T10:22:06.807Z,5.17
2018-09-02T10:24:36.179Z,4.90
2018-09-02T10:27:05.194Z,4.63
2018-09-02T10:29:34.217Z,4.10
2018-09-02T10:32:03.575Z,3.83
2018-09-02T10:34:32.623Z,3.70
2018-09-02T10:37:01.648Z,4.70
2018-09-02T10:39:30.699Z,4.27
2018-09-02T10:41:59.754Z,4.03
2018-09-02T10:44:28.761Z,4.60
2018-09-02T10:46:57.794Z,3.73
2018-09-02T10:49:26.791Z,4.90
2018-09-02T10:51:55.843Z,4.10
2018-09-02T10:54:24.868Z,4.73
2018-09-02T10:56:54.221Z,4.40
2018-09-02T10:59:23.283Z,3.87
2018-09-02T11:01:52.296Z,4.10
2018-09-02T11:04:21.403Z,3.90
2018-09-02T11:06:50.397Z,4.30
2018-09-02T11:09:19.546Z,4.07
2018-09-02T11:11:48.578Z,3.80
2018-09-02T11:14:17.620Z,3.40
2018-09-02T11:16:46.617Z,3.60
2018-09-02T11:19:15.622Z,4.27
2018-09-02T11:21:44.671Z,3.53
2018-09-02T11:24:13.685Z,3.20
2018-09-02T11:26:42.766Z,4.47
2018-09-02T11:29:11.839Z,3.77
2018-09-02T11:31:40.870Z,3.63
2018-09-02T11:34:09.932Z,2.90
2018-09-02T11:36:38.963Z,3.10
2018-09-02T11:39:08.706Z,3.20
2018-09-02T11:41:37.754Z,3.20
2018-09-02T11:44:07.056Z,3.07
2018-09-02T11:46:36.047Z,2.90
2018-09-02T11:49:05.357Z,3.03
2018-09-02T11:51:34.391Z,3.10
2018-09-02T11:54:03.391Z,3.93
2018-09-02T11:56:32.450Z,3.37
2018-09-02T11:59:01.464Z,3.00
2018-09-02T12:01:30.512Z,2.73
2018-09-02T12:03:59.591Z,3.10
2018-09-02T12:06:28.639Z,3.03
2018-09-02T12:08:57.987Z,2.70
2018-09-02T12:11:27.022Z,2.63
2018-09-02T12:13:56.043Z,2.70
2018-09-02T12:16:25.143Z,2.63
2018-09-02T12:18:54.171Z,2.80
2018-09-02T12:21:23.156Z,3.03
2018-09-02T12:23:52.254Z,2.70
2018-09-02T12:26:21.231Z,2.67
2018-09-02T12:28:50.235Z,2.90
2018-09-02T12:31:19.256Z,2.97
2018-09-02T12:33:48.270Z,2.93
2018-09-02T12:36:17.271Z,2.70
2018-09-02T12:38:46.359Z,2.67
2018-09-02T12:41:15.387Z,2.63
2018-09-02T12:43:44.388Z,3.00
2018-09-02T12:46:13.426Z,2.80
2018-09-02T12:48:42.435Z,2.60
2018-09-02T12:51:11.506Z,3.10
2018-09-02T12:53:40.563Z,3.20
2018-09-02T12:56:09.617Z,3.17
2018-09-02T12:58:38.616Z,3.13
2018-09-02T13:01:07.682Z,3.50
2018-09-02T13:03:36.652Z,3.53
2018-09-02T13:06:05.726Z,3.17
2018-09-02T13:08:34.743Z,3.43
2018-09-02T13:11:03.803Z,3.00
2018-09-02T13:13:32.882Z,3.50
2018-09-02T13:16:02.218Z,3.50
2018-09-02T13:18:31.308Z,3.20
2018-09-02T13:21:00.295Z,3.03
2018-09-02T13:23:29.343Z,2.70
2018-09-02T13:25:58.361Z,3.00
2018-09-02T13:28:27.339Z,2.70
2018-09-02T13:30:56.387Z,3.20
2018-09-02T13:33:25.399Z,3.73
2018-09-02T13:35:54.436Z,3.17
2018-09-02T13:38:23.534Z,2.70
2018-09-02T13:40:52.574Z,3.10
2018-09-02T13:43:21.676Z,3.70
2018-09-02T13:45:50.646Z,2.80
2018-09-02T13:48:19.712Z,3.50
2018-09-02T13:50:48.779Z,3.10
2018-09-02T13:53:17.797Z,3.50
2018-09-02T13:55:46.855Z,3.57
2018-09-02T13:58:15.931Z,3.10
2018-09-02T14:00:44.891Z,3.53
2018-09-02T14:03:14.090Z,2.20
2018-09-02T14:05:43.443Z,2.60
2018-09-02T14:08:12.467Z,2.67
2018-09-02T14:10:42.047Z,2.00
2018-09-02T14:13:11.190Z,2.53
2018-09-02T14:15:40.207Z,2.40
2018-09-02T14:18:09.293Z,2.33
2018-09-02T14:20:38.303Z,2.80
2018-09-02T14:23:07.365Z,2.30
2018-09-02T14:25:36.368Z,2.73
2018-09-02T14:28:05.515Z,2.23
2018-09-02T14:30:34.540Z,2.00
2018-09-02T14:33:03.587Z,2.50
2018-09-02T14:35:33.271Z,2.80
2018-09-02T14:38:02.325Z,2.37
2018-09-02T14:40:32.383Z,3.20
2018-09-02T14:43:01.448Z,2.73
2018-09-02T14:45:30.469Z,2.80
2018-09-02T14:47:59.463Z,3.03
2018-09-02T14:50:28.518Z,2.90
2018-09-02T14:52:57.600Z,3.03
2018-09-02T14:55:26.621Z,3.03
2018-09-02T14:57:56.360Z,2.70
2018-09-02T15:00:25.403Z,3.50
2018-09-02T15:02:54.407Z,2.80
2018-09-02T15:05:23.746Z,3.83
2018-09-02T15:07:53.040Z,3.83
2018-09-02T15:10:22.086Z,3.33
2018-09-02T15:12:51.138Z,3.30
2018-09-02T15:15:20.167Z,3.70
2018-09-02T15:17:49.184Z,3.80
2018-09-02T15:20:18.239Z,3.70
2018-09-02T15:22:47.248Z,4.33
2018-09-02T15:25:16.294Z,4.13
2018-09-02T15:27:45.399Z,3.57
2018-09-02T15:30:14.395Z,4.47
2018-09-02T15:32:43.520Z,4.33
2018-09-02T15:35:12.527Z,4.20
2018-09-02T15:37:41.642Z,4.07
2018-09-02T15:40:10.656Z,4.30
2018-09-02T15:42:39.763Z,4.60
2018-09-02T15:45:09.679Z,3.73
2018-09-02T15:47:38.745Z,5.70
2018-09-02T15:50:08.657Z,8.10
2018-09-02T15:52:37.710Z,4.50
2018-09-02T15:55:06.862Z,5.20
2018-09-02T15:57:35.920Z,6.30
2018-09-02T16:00:05.638Z,4.00
2018-09-02T16:02:34.646Z,3.50
2018-09-02T16:05:03.731Z,3.30
2018-09-02T16:07:33.107Z,4.10
2018-09-02T16:10:03.091Z,3.57
2018-09-02T16:12:32.394Z,4.33
2018-09-02T16:15:01.690Z,4.10
2018-09-02T16:17:30.709Z,3.93
2018-09-02T16:19:59.772Z,4.37
2018-09-02T16:22:28.769Z,3.70
2018-09-02T16:24:57.967Z,3.57
2018-09-02T16:27:26.971Z,4.57
2018-09-02T16:29:56.026Z,4.13
2018-09-02T16:32:25.114Z,4.20
2018-09-02T16:34:54.125Z,3.70
2018-09-02T16:37:23.170Z,4.00
2018-09-02T16:39:52.242Z,4.93
2018-09-02T16:42:21.238Z,4.10
2018-09-02T16:44:50.667Z,4.80
2018-09-02T16:47:19.664Z,4.37
2018-09-02T16:49:48.654Z,3.50
2018-09-02T16:52:17.964Z,3.40
2018-09-02T16:54:47.020Z,4.03
2018-09-02T16:57:16.000Z,2.80
2018-09-02T16:59:45.071Z,3.73
2018-09-02T17:02:14.043Z,3.50
2018-09-02T17:04:45.311Z,4.03
2018-09-02T17:07:14.290Z,3.17
2018-09-02T17:09:43.339Z,4.15
2018-09-02T17:12:12.590Z,3.30
2018-09-02T17:14:41.552Z,3.70
2018-09-02T17:17:10.575Z,3.30
2018-09-02T17:19:42.484Z,2.43
2018-09-02T17:22:11.874Z,3.90
2018-09-02T17:24:40.918Z,2.93
2018-09-02T17:27:09.902Z,3.00
2018-09-02T17:29:38.946Z,3.00
2018-09-02T17:32:10.836Z,3.20
2018-09-02T17:34:39.935Z,3.63
2018-09-02T17:37:08.952Z,3.70
2018-09-02T17:39:37.990Z,2.90
2018-09-02T17:42:07.070Z,2.97
2018-09-02T17:44:36.100Z,3.43
2018-09-02T17:47:05.171Z,3.80
2018-09-02T17:49:34.183Z,3.30
2018-09-02T17:52:03.214Z,3.20
2018-09-02T17:54:32.307Z,3.40
2018-09-02T17:57:01.355Z,3.90
2018-09-02T17:59:30.356Z,3.90
2018-09-02T18:01:59.411Z,3.40
2018-09-02T18:04:28.446Z,3.80
2018-09-02T18:06:57.603Z,3.90
2018-09-02T18:09:26.603Z,4.97
2018-09-02T18:11:55.621Z,4.00
2018-09-02T18:14:24.659Z,4.73
2018-09-02T18:16:53.686Z,4.83
2018-09-02T18:19:22.675Z,3.60
2018-09-02T18:21:52.047Z,3.70
2018-09-02T18:24:21.041Z,4.30
2018-09-02T18:26:50.067Z,4.10
2018-09-02T18:29:19.100Z,5.57
2018-09-02T18:31:48.138Z,4.27
2018-09-02T18:34:17.130Z,4.03
2018-09-02T18:36:46.289Z,4.00
2018-09-02T18:39:15.316Z,4.43
2018-09-02T18:41:44.347Z,3.70
2018-09-02T18:44:13.339Z,3.43
2018-09-02T18:46:42.418Z,3.93
2018-09-02T18:49:11.514Z,4.30
2018-09-02T18:51:40.551Z,4.17
2018-09-02T18:54:09.628Z,4.37
2018-09-02T18:56:38.622Z,4.10
2018-09-02T18:59:07.748Z,4.27
2018-09-02T19:01:37.107Z,4.23
2018-09-02T19:04:06.304Z,3.93
2018-09-02T19:06:35.298Z,4.95
2018-09-02T19:09:05.999Z,4.40
2018-09-02T19:11:35.040Z,4.80
2018-09-02T19:14:04.094Z,5.80
2018-09-02T19:16:33.105Z,5.13
2018-09-02T19:19:02.398Z,4.70
2018-09-02T19:21:31.390Z,4.63
2018-09-02T19:24:00.497Z,5.43
2018-09-02T19:26:29.570Z,6.10
2018-09-02T19:28:58.572Z,4.60
2018-09-02T19:31:27.615Z,5.10
2018-09-02T19:33:56.873Z,6.10
2018-09-02T19:36:25.912Z,4.90
2018-09-02T19:38:55.067Z,4.97
2018-09-02T19:41:24.091Z,5.80
2018-09-02T19:43:53.189Z,5.33
2018-09-02T19:46:22.540Z,6.43
2018-09-02T19:48:51.613Z,6.10
2018-09-02T19:51:20.647Z,7.30
2018-09-02T19:53:49.694Z,6.43
2018-09-02T19:56:19.063Z,6.50
2018-09-02T19:58:48.091Z,7.40
2018-09-02T20:01:17.176Z,6.23
2018-09-02T20:03:46.234Z,8.63
2018-09-02T20:06:15.291Z,8.20
2018-09-02T20:08:44.331Z,8.10
2018-09-02T20:11:13.375Z,8.30
2018-09-02T20:13:42.414Z,7.23
2018-09-02T20:16:11.711Z,7.43
2018-09-02T20:18:41.019Z,6.40
2018-09-02T20:21:10.074Z,6.30
2018-09-02T20:23:39.065Z,6.17
2018-09-02T20:26:08.535Z,6.70
2018-09-02T20:28:37.605Z,7.13
2018-09-02T20:31:06.790Z,6.70
2018-09-02T20:33:35.811Z,6.70
2018-09-02T20:36:05.825Z,7.90
2018-09-02T20:38:34.959Z,6.40
2018-09-02T20:41:03.979Z,6.20
2018-09-02T20:43:33.016Z,6.93
2018-09-02T20:46:02.056Z,6.70
2018-09-02T20:48:31.049Z,7.10
2018-09-02T20:51:00.170Z,6.93
2018-09-02T20:53:29.146Z,7.83
2018-09-02T20:55:58.477Z,7.87
2018-09-02T20:58:27.483Z,7.50
2018-09-02T21:00:56.492Z,9.40
2018-09-02T21:03:25.543Z,8.50
2018-09-02T21:05:54.715Z,8.67
2018-09-02T21:08:23.778Z,7.87
2018-09-02T21:10:52.835Z,8.67
2018-09-02T21:13:21.882Z,8.33
2018-09-02T21:15:50.878Z,8.77
2018-09-02T21:18:19.896Z,9.80
2018-09-02T21:20:48.922Z,9.73
2018-09-02T21:23:18.014Z,9.97
2018-09-02T21:25:47.041Z,10.53
2018-09-02T21:28:16.033Z,9.83
2018-09-02T21:30:45.030Z,11.50
2018-09-02T21:33:14.062Z,11.63
2018-09-02T21:35:43.092Z,11.30
2018-09-02T21:38:12.106Z,11.73
2018-09-02T21:40:41.137Z,12.10
2018-09-02T21:43:10.143Z,12.27
2018-09-02T21:45:39.183Z,12.40
2018-09-02T21:48:08.251Z,11.33
2018-09-02T21:50:37.286Z,11.57
2018-09-02T21:53:06.471Z,13.10
2018-09-02T21:55:35.471Z,11.60
2018-09-02T21:58:04.623Z,11.53
2018-09-02T22:00:33.735Z,12.00
2018-09-02T22:03:02.766Z,11.03
2018-09-02T22:05:31.833Z,12.13
2018-09-02T22:08:00.874Z,11.97
2018-09-02T22:10:29.870Z,11.87
2018-09-02T22:12:58.911Z,12.63
2018-09-02T22:15:27.962Z,11.50
2018-09-02T22:17:56.963Z,11.10
2018-09-02T22:20:26.022Z,11.23
2018-09-02T22:22:55.034Z,10.53
2018-09-02T22:25:24.149Z,11.20
2018-09-02T22:27:58.662Z,12.80
2018-09-02T22:30:33.166Z,12.93
2018-09-02T22:33:07.776Z,11.40
2018-09-02T22:35:42.363Z,12.50
2018-09-02T22:38:17.074Z,10.77
2018-09-02T22:40:51.682Z,14.23
2018-09-02T22:43:26.179Z,14.97
2018-09-02T22:46:00.831Z,15.03
2018-09-02T22:48:35.588Z,15.90
2018-09-02T22:51:10.200Z,16.33
2018-09-02T22:53:44.701Z,16.23
2018-09-02T22:56:19.427Z,15.57
2018-09-02T22:58:54.156Z,15.10
2018-09-02T23:01:28.827Z,15.90
2018-09-02T23:04:03.420Z,15.83
2018-09-02T23:06:37.939Z,16.43
2018-09-02T23:09:12.590Z,17.80
2018-09-02T23:11:47.174Z,17.17
2018-09-02T23:14:21.805Z,17.10
2018-09-02T23:16:56.720Z,17.63
2018-09-02T23:19:31.286Z,18.37
2018-09-02T23:22:05.791Z,17.40
2018-09-02T23:24:40.434Z,18.23
2018-09-02T23:27:15.179Z,17.00
2018-09-02T23:29:49.820Z,16.87
2018-09-02T23:32:24.555Z,17.80
2018-09-02T23:34:59.195Z,19.17
2018-09-02T23:37:33.870Z,19.53
2018-09-02T23:40:08.775Z,18.37
2018-09-02T23:42:43.511Z,18.50
2018-09-02T23:45:18.078Z,18.03
2018-09-02T23:47:52.558Z,17.43
2018-09-02T23:50:27.307Z,18.20
2018-09-02T23:53:01.954Z,18.73
2018-09-02T23:55:37.060Z,18.47
2018-09-02T23:58:11.732Z,18.47
